Time;durP1;ratioP1;P1;durP2;ratioP2;P2;SDS_P1;SDS_P2;PMS_P1;PMS_P2;Temp;Humidity;BMP_temperature;BMP_pressure;BME280_temperature;BME280_humidity;BME280_pressure;Samples;Min_cycle;Max_cycle;Signal;HPM_P1;HPM_P2
2023/05/04 00:01:56;;;;;;;15.20;4.05;;;;;;;5.81;100.00;102006.16;4920654;29;20043;-66
2023/05/04 00:04:22;;;;;;;19.90;4.07;;;;;;;5.83;100.00;102003.41;4935765;29;20520;-66
2023/05/04 00:06:49;;;;;;;12.52;3.63;;;;;;;5.75;100.00;102009.22;4936122;29;20052;-66
2023/05/04 00:09:15;;;;;;;7.90;3.15;;;;;;;5.73;100.00;102004.00;4934782;29;20134;-66
2023/05/04 00:11:42;;;;;;;14.10;3.42;;;;;;;5.75;100.00;102009.22;4937092;29;20055;-67
2023/05/04 00:14:08;;;;;;;8.77;3.25;;;;;;;5.69;100.00;102005.13;4932618;29;20087;-66
2023/05/04 00:16:35;;;;;;;17.25;4.13;;;;;;;5.74;100.00;102000.38;4935830;29;20043;-66
2023/05/04 00:19:02;;;;;;;11.43;4.03;;;;;;;5.73;100.00;101993.34;4935485;29;20044;-66
2023/05/04 00:21:28;;;;;;;14.77;3.80;;;;;;;5.66;100.00;102005.31;4935146;29;20043;-66
2023/05/04 00:23:55;;;;;;;11.63;3.78;;;;;;;5.60;100.00;101995.06;4935322;29;20058;-66
2023/05/04 00:26:21;;;;;;;15.02;4.00;;;;;;;5.64;100.00;102001.06;4934588;29;20134;-66
2023/05/04 00:28:48;;;;;;;10.13;3.40;;;;;;;5.59;100.00;101998.66;4934998;29;20067;-66
2023/05/04 00:31:17;;;;;;;15.38;3.83;;;;;;;5.60;100.00;101994.22;4922227;29;20134;-66
2023/05/04 00:33:44;;;;;;;17.33;3.85;;;;;;;5.61;100.00;102001.25;4915840;29;20107;-66
2023/05/04 00:36:12;;;;;;;10.23;3.28;;;;;;;5.57;100.00;101997.06;4894494;29;20050;-66
2023/05/04 00:38:53;;;;;;;15.30;4.55;;;;;;;5.55;100.00;102002.47;4916095;29;20075;-66
2023/05/04 00:41:20;;;;;;;12.70;3.25;;;;;;;5.55;100.00;102001.63;4915961;29;20056;-66
2023/05/04 00:43:48;;;;;;;11.75;3.70;;;;;;;5.47;100.00;101988.81;4915683;29;20052;-66
2023/05/04 00:46:14;;;;;;;12.60;3.33;;;;;;;5.42;100.00;102001.53;4915570;29;20044;-66
2023/05/04 00:48:42;;;;;;;12.07;3.58;;;;;;;5.41;100.00;101998.00;4916144;29;20506;-66
2023/05/04 00:51:10;;;;;;;8.30;3.33;;;;;;;5.32;100.00;101989.75;4910570;29;20044;-66
2023/05/04 00:53:38;;;;;;;15.30;3.03;;;;;;;5.38;100.00;101992.03;4915481;29;20055;-66
2023/05/04 00:56:05;;;;;;;17.23;3.67;;;;;;;5.38;100.00;101992.88;4913956;29;20080;-66
2023/05/04 00:58:33;;;;;;;13.50;3.92;;;;;;;5.37;100.00;101993.84;4915241;29;20059;-66
2023/05/04 01:01:01;;;;;;;11.77;3.10;;;;;;;5.38;100.00;101994.69;4898426;29;20060;-66
2023/05/04 01:03:28;;;;;;;12.40;3.53;;;;;;;5.34;100.00;101993.19;4915439;29;20048;-64
2023/05/04 01:10:16;;;;;;;14.70;3.58;;;;;;;5.28;100.00;101987.31;4914865;29;20513;-65
2023/05/04 01:12:50;;;;;;;22.50;4.72;;;;;;;5.21;100.00;101982.44;4914040;29;20501;-66
2023/05/04 01:15:18;;;;;;;11.95;3.20;;;;;;;5.10;100.00;101980.44;4914119;29;20048;-67
2023/05/04 01:17:45;;;;;;;12.13;4.20;;;;;;;5.04;100.00;101986.16;4913468;29;20507;-64
2023/05/04 01:20:12;;;;;;;13.52;4.32;;;;;;;5.00;100.00;101979.28;4905422;29;20436;-65
2023/05/04 01:22:39;;;;;;;17.58;3.55;;;;;;;5.00;100.00;101977.47;4907891;29;20143;-64
2023/05/04 01:25:07;;;;;;;17.15;3.90;;;;;;;5.05;100.00;101982.53;4914493;29;20058;-65
2023/05/04 01:27:44;;;;;;;12.52;3.85;;;;;;;5.03;100.00;101979.09;4914336;29;20047;-64
2023/05/04 01:30:17;;;;;;;11.88;3.33;;;;;;;5.00;100.00;101982.78;4914296;29;20040;-66
2023/05/04 01:32:46;;;;;;;11.73;3.72;;;;;;;4.95;100.00;101982.22;4913060;29;20634;-64
2023/05/04 01:35:15;;;;;;;13.27;3.50;;;;;;;4.94;100.00;101979.69;4914320;29;20103;-66
2023/05/04 01:37:41;;;;;;;14.02;3.92;;;;;;;4.81;100.00;101983.06;4913759;29;20064;-66
2023/05/04 01:40:08;;;;;;;13.23;3.67;;;;;;;4.82;100.00;101990.06;4914048;29;20107;-66
2023/05/04 01:42:35;;;;;;;15.20;4.15;;;;;;;4.73;100.00;101988.00;4914518;29;20557;-66
2023/05/04 01:45:03;;;;;;;13.43;3.80;;;;;;;4.69;100.00;101986.44;4913626;29;20058;-66
2023/05/04 01:47:29;;;;;;;10.10;3.78;;;;;;;4.63;100.00;101981.50;4913187;29;20058;-64
2023/05/04 01:49:56;;;;;;;12.75;3.95;;;;;;;4.57;100.00;101976.53;4914133;29;20473;-65
2023/05/04 01:52:22;;;;;;;16.80;3.97;;;;;;;4.56;100.00;101978.34;4913935;29;20135;-65
2023/05/04 01:54:49;;;;;;;13.15;3.67;;;;;;;4.46;100.00;101984.28;4914349;29;20477;-67
2023/05/04 01:57:16;;;;;;;12.13;3.40;;;;;;;4.37;100.00;101977.66;4915234;29;20059;-66
2023/05/04 01:59:42;;;;;;;11.18;3.63;;;;;;;4.42;100.00;101978.31;4915079;29;20052;-66
2023/05/04 02:02:09;;;;;;;16.38;3.53;;;;;;;4.39;100.00;101978.47;4914070;29;20469;-66
2023/05/04 02:04:36;;;;;;;12.20;3.67;;;;;;;4.45;100.00;101974.59;4914447;29;20067;-67
2023/05/04 02:07:02;;;;;;;15.55;3.53;;;;;;;4.40;100.00;101974.03;4914073;29;20048;-65
2023/05/04 02:09:30;;;;;;;12.02;3.83;;;;;;;4.42;100.00;101973.00;4913891;29;20561;-65
2023/05/04 02:11:57;;;;;;;17.00;3.90;;;;;;;4.42;100.00;101975.66;4914297;29;20398;-66
2023/05/04 02:14:23;;;;;;;11.23;3.22;;;;;;;4.34;100.00;101983.16;4914497;29;20054;-67
2023/05/04 02:16:50;;;;;;;16.20;3.92;;;;;;;4.28;100.00;101978.22;4915711;29;20062;-70
2023/05/04 02:19:16;;;;;;;20.50;3.92;;;;;;;4.29;100.00;101978.13;4920901;29;20047;-69
2023/05/04 02:21:43;;;;;;;12.85;3.22;;;;;;;4.29;100.00;101977.25;4915254;29;20059;-69
2023/05/04 02:24:09;;;;;;;9.23;3.50;;;;;;;4.25;100.00;101968.63;4919361;29;20054;-69
2023/05/04 02:26:36;;;;;;;18.85;4.15;;;;;;;4.26;100.00;101972.13;4918663;29;20564;-68
2023/05/04 02:29:03;;;;;;;13.15;3.33;;;;;;;4.25;100.00;101973.09;4919218;29;20056;-68
2023/05/04 02:31:31;;;;;;;16.38;4.07;;;;;;;4.25;100.00;101971.28;4919099;29;20052;-68
2023/05/04 02:34:00;;;;;;;15.32;3.50;;;;;;;4.18;100.00;101969.91;4917256;29;20569;-69
2023/05/04 02:36:26;;;;;;;12.88;3.35;;;;;;;4.18;100.00;101969.91;4921010;29;20083;-69
2023/05/04 02:38:57;;;;;;;9.18;3.22;;;;;;;4.16;100.00;101984.22;4886188;29;20049;-69
2023/05/04 02:41:25;;;;;;;15.23;3.33;;;;;;;4.17;100.00;101975.31;4901311;29;20052;-69
2023/05/04 02:43:51;;;;;;;16.75;3.58;;;;;;;4.07;100.00;101982.94;4901305;29;20048;-69
2023/05/04 02:46:18;;;;;;;14.15;3.25;;;;;;;4.16;100.00;101978.91;4900962;29;20045;-69
2023/05/04 02:48:45;;;;;;;17.55;4.22;;;;;;;4.11;100.00;101973.88;4902814;29;20577;-69
2023/05/04 02:51:12;;;;;;;17.95;3.83;;;;;;;4.12;100.00;101974.72;4898445;29;20044;-69
2023/05/04 02:53:38;;;;;;;16.38;4.03;;;;;;;4.12;100.00;101974.72;4901168;29;20048;-69
2023/05/04 02:56:05;;;;;;;11.88;3.50;;;;;;;3.96;100.00;101969.41;4901548;29;20131;-69
2023/05/04 02:58:31;;;;;;;12.77;4.07;;;;;;;3.93;100.00;101969.59;4901717;29;20052;-69
2023/05/04 03:00:58;;;;;;;14.75;3.35;;;;;;;3.83;100.00;101974.56;4902014;29;20139;-69
2023/05/04 03:03:25;;;;;;;14.05;3.60;;;;;;;3.84;100.00;101970.97;4884301;29;20045;-68
2023/05/04 03:05:51;;;;;;;16.60;3.55;;;;;;;3.80;100.00;101970.28;4900000;29;20127;-69
2023/05/04 03:08:18;;;;;;;14.25;3.92;;;;;;;3.80;100.00;101972.94;4900523;29;20079;-69
2023/05/04 03:10:44;;;;;;;11.35;3.38;;;;;;;3.77;100.00;101973.09;4901547;29;20048;-69
2023/05/04 03:13:11;;;;;;;12.63;3.70;;;;;;;3.81;100.00;101972.00;4904003;29;20108;-69
2023/05/04 03:15:38;;;;;;;18.42;4.30;;;;;;;3.82;100.00;101972.84;4904210;29;20127;-70
2023/05/04 03:18:04;;;;;;;15.20;3.75;;;;;;;3.72;100.00;101975.16;4904384;29;20139;-71
2023/05/04 03:20:31;;;;;;;10.38;3.38;;;;;;;3.67;100.00;101963.09;4903212;29;20048;-71
2023/05/04 03:22:57;;;;;;;17.35;4.20;;;;;;;3.61;100.00;101967.78;4903621;29;20052;-71
2023/05/04 03:25:24;;;;;;;20.02;3.90;;;;;;;3.58;100.00;101969.75;4886250;29;20052;-69
2023/05/04 03:27:50;;;;;;;14.98;4.03;;;;;;;3.63;100.00;101959.75;4904760;29;20485;-68
2023/05/04 03:30:17;;;;;;;14.05;3.63;;;;;;;3.56;100.00;101963.69;4905391;29;20057;-70
2023/05/04 03:32:43;;;;;;;14.48;3.72;;;;;;;3.65;100.00;101964.97;4905907;29;20549;-71
2023/05/04 03:35:10;;;;;;;12.35;3.53;;;;;;;3.66;100.00;101967.56;4906096;29;20114;-70
2023/05/04 03:37:36;;;;;;;17.52;4.07;;;;;;;3.65;100.00;101964.97;4912747;29;20055;-70
2023/05/04 03:40:04;;;;;;;12.10;3.58;;;;;;;3.60;100.00;101971.38;4924221;29;20045;-70
2023/05/04 03:42:30;;;;;;;17.90;4.07;;;;;;;3.63;100.00;101968.56;4924710;29;20052;-69
2023/05/04 03:44:57;;;;;;;19.95;3.67;;;;;;;3.64;100.00;101964.13;4905901;29;20048;-69
2023/05/04 03:47:23;;;;;;;13.27;3.75;;;;;;;3.56;100.00;101971.66;4923479;29;20071;-68
2023/05/04 03:49:50;;;;;;;19.95;4.00;;;;;;;3.59;100.00;101968.81;4923275;29;20052;-68
2023/05/04 03:52:17;;;;;;;19.33;4.05;;;;;;;3.55;100.00;101956.66;4923275;29;20465;-69
2023/05/04 03:54:43;;;;;;;14.68;3.15;;;;;;;3.58;100.00;101961.78;4921992;29;20048;-69
2023/05/04 03:57:10;;;;;;;10.00;3.35;;;;;;;3.57;100.00;101960.94;4921733;29;21253;-68
2023/05/04 03:59:36;;;;;;;11.52;3.65;;;;;;;3.47;100.00;101958.88;4923462;29;20514;-69
2023/05/04 04:02:03;;;;;;;16.17;3.97;;;;;;;3.58;100.00;101959.13;4906718;29;20074;-70
2023/05/04 04:04:29;;;;;;;14.45;3.40;;;;;;;3.47;100.00;101965.03;4928169;29;20039;-69
2023/05/04 04:06:56;;;;;;;14.65;3.88;;;;;;;3.58;100.00;101959.13;4938927;29;20036;-69
2023/05/04 04:09:22;;;;;;;16.67;3.97;;;;;;;3.51;100.00;101968.38;4938527;29;20123;-69
2023/05/04 04:11:49;;;;;;;16.75;3.85;;;;;;;3.45;100.00;101961.63;4939731;29;20039;-69
2023/05/04 04:14:15;;;;;;;20.58;4.30;;;;;;;3.46;100.00;101954.53;4937694;29;20052;-69
2023/05/04 04:16:42;;;;;;;15.90;3.53;;;;;;;3.34;100.00;101962.22;4939043;29;20042;-69
2023/05/04 04:19:08;;;;;;;17.40;4.05;;;;;;;3.48;100.00;101955.28;4939406;29;20125;-69
2023/05/04 04:21:35;;;;;;;14.15;3.50;;;;;;;3.56;100.00;101956.59;4939086;29;20036;-69
2023/05/04 04:24:01;;;;;;;16.65;4.60;;;;;;;3.70;100.00;101955.81;4930292;29;20054;-69
2023/05/04 04:26:28;;;;;;;18.48;3.78;;;;;;;3.76;100.00;101950.16;4925367;29;20048;-70
2023/05/04 04:28:54;;;;;;;16.85;4.05;;;;;;;3.89;100.00;101958.28;4927588;29;20087;-69
2023/05/04 04:31:21;;;;;;;24.83;4.85;;;;;;;3.95;100.00;101965.06;5262474;23;20103;-69
2023/05/04 04:33:50;;;;;;;22.33;4.40;;;;;;;4.02;100.00;101959.31;4922378;29;20111;-69
2023/05/04 04:36:17;;;;;;;17.00;4.10;;;;;;;3.98;100.00;101956.91;4923253;29;20071;-69
2023/05/04 04:38:44;;;;;;;20.63;4.57;;;;;;;4.06;100.00;101963.50;4938187;29;20056;-69
2023/05/04 04:41:10;;;;;;;16.55;4.80;;;;;;;4.06;100.00;101957.31;4938804;29;20063;-69
2023/05/04 04:43:37;;;;;;;14.18;3.78;;;;;;;3.96;100.00;101953.47;4938573;29;20039;-69
2023/05/04 04:46:03;;;;;;;15.60;4.30;;;;;;;3.98;100.00;101965.75;5052085;23;20040;-69
2023/05/04 04:48:30;;;;;;;14.23;4.07;;;;;;;4.15;100.00;101959.47;4937230;29;20048;-69
2023/05/04 04:50:57;;;;;;;15.63;4.45;;;;;;;4.25;100.00;101960.66;4938324;29;20048;-69
2023/05/04 04:53:24;;;;;;;16.27;4.68;;;;;;;4.34;100.00;101961.91;4916573;29;20569;-65
2023/05/04 04:55:51;;;;;;;15.38;4.07;;;;;;;4.42;100.00;101962.38;4915697;29;20122;-65
2023/05/04 04:58:18;;;;;;;16.70;4.38;;;;;;;4.30;100.00;101966.53;4898865;29;20509;-65
2023/05/04 05:00:46;;;;;;;22.85;4.88;;;;;;;4.30;100.00;101974.50;4913162;29;20052;-64
2023/05/04 05:03:12;;;;;;;19.45;4.20;;;;;;;4.39;100.00;101961.69;4930459;29;20321;-66
2023/05/04 05:05:39;;;;;;;13.60;3.85;;;;;;;4.44;100.00;101965.75;4950456;29;20055;-69
2023/05/04 05:08:05;;;;;;;15.20;4.85;;;;;;;4.41;100.00;101960.63;4957581;29;20074;-69
2023/05/04 05:10:32;;;;;;;21.98;5.10;;;;;;;4.43;100.00;101960.56;4957291;29;20052;-69
2023/05/04 05:12:58;;;;;;;18.52;4.97;;;;;;;4.58;100.00;101954.31;4957953;29;20096;-69
2023/05/04 05:15:25;;;;;;;12.43;4.07;;;;;;;4.68;100.00;101951.97;4974795;23;20043;-69
2023/05/04 05:17:51;;;;;;;25.90;5.00;;;;;;;4.69;100.00;101949.22;4928937;29;20138;-69
2023/05/04 05:20:18;;;;;;;19.75;5.03;;;;;;;4.82;100.00;101949.34;4925422;29;20044;-70
2023/05/04 05:22:44;;;;;;;18.70;5.32;;;;;;;4.85;100.00;101953.63;4925664;29;20056;-68
2023/05/04 05:25:11;;;;;;;21.90;5.35;;;;;;;4.92;100.00;101954.97;4923394;29;20047;-69
2023/05/04 05:27:38;;;;;;;19.83;5.35;;;;;;;4.93;100.00;101951.34;4924568;29;20048;-68
2023/05/04 05:30:05;;;;;;;18.33;5.60;;;;;;;5.14;100.00;101957.16;4923410;29;20075;-69
2023/05/04 05:32:32;;;;;;;15.75;4.85;;;;;;;5.24;100.00;101951.16;4906395;29;20462;-69
2023/05/04 05:34:59;;;;;;;23.42;5.75;;;;;;;5.18;100.00;101946.25;4881531;29;20054;-68
2023/05/04 05:37:26;;;;;;;27.02;7.68;;;;;;;5.14;100.00;101952.69;4907116;29;20071;-68
2023/05/04 05:39:52;;;;;;;15.52;4.63;;;;;;;5.16;100.00;101952.59;4906445;29;20047;-69
2023/05/04 05:42:19;;;;;;;30.25;6.05;;;;;;;5.48;100.00;101950.59;4904314;29;20049;-68
2023/05/04 05:44:46;;;;;;;25.73;5.85;;;;;;;5.48;100.00;101954.09;4905143;29;20067;-69
2023/05/04 05:47:13;;;;;;;20.23;5.75;;;;;;;5.51;100.00;101955.72;4905473;29;20054;-68
2023/05/04 05:49:40;;;;;;;20.77;5.70;;;;;;;5.40;100.00;101953.72;4904799;29;20052;-69
2023/05/04 05:52:07;;;;;;;14.00;4.63;;;;;;;5.46;100.00;101948.03;4903996;29;20422;-69
2023/05/04 05:54:34;;;;;;;21.73;5.28;;;;;;;5.56;100.00;101948.31;4905159;29;20135;-69
2023/05/04 05:57:01;;;;;;;15.27;5.13;;;;;;;5.71;100.00;101952.66;4907401;29;20052;-68
2023/05/04 05:59:27;;;;;;;24.35;5.38;;;;;;;5.76;100.00;101950.53;4907028;29;20048;-69
2023/05/04 06:01:54;;;;;;;14.48;4.90;;;;;;;5.87;100.00;101952.53;4909711;29;20050;-68
2023/05/04 06:04:21;;;;;;;18.38;5.32;;;;;;;5.89;100.00;101947.94;4925255;29;21529;-70
2023/05/04 06:06:48;;;;;;;23.65;4.90;;;;;;;5.86;100.00;101961.44;4925255;29;20052;-70
2023/05/04 06:09:14;;;;;;;25.27;5.43;;;;;;;5.89;100.00;101947.94;4925334;29;20521;-70
2023/05/04 06:11:41;;;;;;;13.30;4.53;;;;;;;6.20;100.00;101948.59;4928545;29;20064;-71
2023/05/04 06:14:07;;;;;;;17.08;4.97;;;;;;;6.25;100.00;101949.13;4930909;29;20064;-72
2023/05/04 06:16:34;;;;;;;29.85;4.93;;;;;;;6.25;100.00;101949.13;4927656;29;20453;-71
2023/05/04 06:19:01;;;;;;;22.67;5.20;;;;;;;6.34;100.00;101948.56;4932705;29;20048;-72
2023/05/04 06:21:27;;;;;;;22.30;5.10;;;;;;;6.00;100.00;101947.22;4916544;29;20032;-72
2023/05/04 06:23:54;;;;;;;13.77;5.07;;;;;;;6.38;100.00;101954.53;4932278;29;20131;-72
2023/05/04 06:26:21;;;;;;;23.50;5.53;;;;;;;6.57;100.00;101952.34;4932816;29;20103;-71
2023/05/04 06:28:48;;;;;;;17.23;4.95;;;;;;;6.70;100.00;101945.22;4931418;29;20056;-72
2023/05/04 06:31:14;;;;;;;28.10;5.70;;;;;;;6.87;100.00;101954.69;4927138;29;20104;-72
2023/05/04 06:33:41;;;;;;;16.52;5.25;;;;;;;7.05;100.00;101962.38;4932256;29;20072;-73
2023/05/04 06:36:07;;;;;;;13.30;5.55;;;;;;;7.29;100.00;101958.03;4926160;29;20068;-71
2023/05/04 06:38:34;;;;;;;26.42;5.50;;;;;;;7.39;100.00;101960.88;4922290;29;20052;-71
2023/05/04 06:41:04;;;;;;;15.15;4.88;;;;;;;7.44;100.00;101961.41;4927144;29;20074;-71
2023/05/04 06:43:31;;;;;;;12.45;5.25;;;;;;;7.65;100.00;101959.88;4933100;29;20484;-72
2023/05/04 06:46:04;;;;;;;21.55;5.55;;;;;;;7.98;100.00;101965.56;4931789;29;20135;-72
2023/05/04 06:48:30;;;;;;;12.23;4.50;;;;;;;8.12;96.88;101968.06;4931813;29;20047;-71
2023/05/04 06:50:57;;;;;;;21.40;4.95;;;;;;;8.33;95.12;101961.13;4928030;29;20055;-73
2023/05/04 06:53:27;;;;;;;19.05;5.03;;;;;;;8.75;90.83;101960.66;4911623;29;20424;-72
2023/05/04 06:55:54;;;;;;;22.08;5.00;;;;;;;8.94;87.16;101966.28;4912706;29;20049;-74
2023/05/04 06:58:20;;;;;;;12.40;4.05;;;;;;;9.23;83.80;101955.09;4912204;29;20053;-72
2023/05/04 07:00:47;;;;;;;16.25;4.47;;;;;;;9.37;80.76;101948.69;4908316;29;20048;-72
2023/05/04 07:03:13;;;;;;;19.00;4.43;;;;;;;9.91;77.36;101951.41;4919680;29;20044;-72
2023/05/04 07:05:41;;;;;;;20.00;4.63;;;;;;;10.23;75.11;101955.94;4927778;29;20135;-72
2023/05/04 07:08:08;;;;;;;24.42;5.28;;;;;;;10.80;72.50;101954.72;4927045;29;20416;-72
2023/05/04 07:10:35;;;;;;;15.75;4.85;;;;;;;11.17;70.11;101964.94;4923361;29;20060;-72
2023/05/04 07:13:02;;;;;;;16.83;4.68;;;;;;;11.28;69.31;101959.50;4926959;29;20048;-72
2023/05/04 07:15:28;;;;;;;19.38;4.47;;;;;;;11.45;67.09;101955.34;4924785;29;20068;-70
2023/05/04 07:17:55;;;;;;;15.25;4.63;;;;;;;11.37;66.18;101952.47;4923255;29;20111;-72
2023/05/04 07:20:22;;;;;;;13.00;4.07;;;;;;;11.66;66.76;101952.63;4923035;29;20081;-73
2023/05/04 07:22:55;;;;;;;19.85;4.50;;;;;;;11.97;64.27;101948.00;4924678;29;20052;-72
2023/05/04 07:25:26;;;;;;;17.63;4.93;;;;;;;12.14;63.44;101947.31;4923495;29;20146;-72
2023/05/04 07:27:53;;;;;;;21.83;4.68;;;;;;;12.41;62.02;101940.34;4922681;29;20324;-72
2023/05/04 07:30:20;;;;;;;11.48;4.60;;;;;;;12.51;60.62;101946.59;4923121;29;20054;-72
2023/05/04 07:32:47;;;;;;;15.13;5.22;;;;;;;12.87;59.81;101934.25;4924953;29;20056;-72
2023/05/04 07:35:14;;;;;;;19.55;4.30;;;;;;;13.18;57.99;101919.66;4923184;29;20048;-72
2023/05/04 07:37:40;;;;;;;19.08;4.50;;;;;;;13.60;56.79;101925.44;4923406;29;20048;-72
2023/05/04 07:40:08;;;;;;;15.98;4.65;;;;;;;13.75;55.00;101918.50;4923300;29;20052;-72
2023/05/04 07:42:34;;;;;;;24.92;4.00;;;;;;;13.76;52.63;101916.69;4923881;29;20072;-72
2023/05/04 07:45:01;;;;;;;14.85;3.80;;;;;;;12.97;53.55;101922.56;4925162;29;20107;-72
2023/05/04 07:47:27;;;;;;;18.00;3.90;;;;;;;14.10;51.49;101916.03;4923683;29;20044;-72
2023/05/04 07:49:54;;;;;;;12.32;3.47;;;;;;;14.48;50.33;101912.13;4923260;29;20060;-71
2023/05/04 07:52:21;;;;;;;18.63;3.55;;;;;;;14.86;47.75;101907.38;4921954;29;20087;-72
2023/05/04 07:54:51;;;;;;;14.18;3.10;;;;;;;14.37;47.06;101907.00;4922063;29;20079;-71
2023/05/04 07:57:18;;;;;;;13.18;3.33;;;;;;;14.01;47.86;101907.00;4917788;29;20044;-72
2023/05/04 07:59:44;;;;;;;11.80;2.95;;;;;;;14.27;47.32;101907.91;4923317;29;20048;-72
2023/05/04 08:02:11;;;;;;;11.27;2.88;;;;;;;14.15;46.71;101909.19;4923055;29;20055;-72
2023/05/04 08:04:38;;;;;;;13.38;2.65;;;;;;;15.03;44.99;101908.31;4922397;29;20051;-72
2023/05/04 08:07:04;;;;;;;12.63;2.60;;;;;;;15.38;44.78;101896.47;4923280;29;20107;-72
2023/05/04 08:09:31;;;;;;;13.77;3.45;;;;;;;15.69;44.08;101900.31;4921282;29;20063;-71
2023/05/04 08:11:57;;;;;;;8.32;2.80;;;;;;;15.41;43.92;101904.25;4922325;29;20075;-72
2023/05/04 08:14:24;;;;;;;5.80;3.15;;;;;;;14.88;44.06;101900.81;4920805;29;20404;-72
2023/05/04 08:16:50;;;;;;;10.80;3.47;;;;;;;15.33;43.71;101905.09;4922618;29;20056;-72
2023/05/04 08:19:17;;;;;;;13.05;3.25;;;;;;;16.05;42.67;101908.16;4911974;29;20050;-72
2023/05/04 08:21:44;;;;;;;8.98;2.63;;;;;;;15.89;42.40;101894.63;4920795;29;20071;-72
2023/05/04 08:24:10;;;;;;;17.35;3.40;;;;;;;16.49;41.22;101897.00;4920290;29;20050;-73
2023/05/04 08:26:37;;;;;;;9.95;2.28;;;;;;;16.38;41.37;101895.47;4922003;29;20054;-71
2023/05/04 08:29:09;;;;;;;11.48;3.05;;;;;;;16.59;39.83;101891.44;4917815;29;20052;-71
2023/05/04 08:31:36;;;;;;;9.63;2.58;;;;;;;16.28;39.94;101885.84;4918787;29;20054;-71
2023/05/04 08:34:03;;;;;;;9.40;2.45;;;;;;;15.99;39.57;101895.31;4923117;29;20079;-70
2023/05/04 08:36:30;;;;;;;9.35;2.78;;;;;;;14.90;39.23;101897.94;4922556;29;20075;-71
2023/05/04 08:38:57;;;;;;;11.45;2.30;;;;;;;15.82;39.79;101883.63;4921073;29;20052;-71
2023/05/04 08:41:23;;;;;;;9.15;2.67;;;;;;;15.54;40.19;101891.13;4906885;29;20135;-70
2023/05/04 08:43:51;;;;;;;9.63;2.67;;;;;;;13.96;40.29;101893.13;4923265;29;20054;-71
2023/05/04 08:46:17;;;;;;;9.68;2.40;;;;;;;15.70;39.51;101891.19;4922628;29;20051;-71
2023/05/04 08:48:44;;;;;;;10.43;2.58;;;;;;;15.13;39.49;101885.56;4920301;29;20067;-71
2023/05/04 08:51:11;;;;;;;7.68;2.33;;;;;;;15.35;39.92;101885.97;4919171;29;20076;-71
2023/05/04 08:53:41;;;;;;;10.63;2.55;;;;;;;15.53;40.13;101877.75;4919527;29;20052;-71
2023/05/04 08:56:12;;;;;;;14.47;2.70;;;;;;;17.23;37.60;101865.13;4919918;29;20108;-70
2023/05/04 08:58:50;;;;;;;10.32;2.50;;;;;;;18.06;36.92;101859.06;4919373;29;20048;-71
2023/05/04 09:01:18;;;;;;;9.35;2.75;;;;;;;17.54;36.41;101853.47;4918429;29;20113;-71
2023/05/04 09:03:46;;;;;;;7.65;2.67;;;;;;;18.01;36.20;101857.91;4871401;29;20076;-71
2023/05/04 09:06:13;;;;;;;11.48;2.75;;;;;;;17.70;35.95;101858.81;4876678;29;20132;-71
2023/05/04 09:08:41;;;;;;;8.15;2.05;;;;;;;18.16;34.99;101863.41;4862251;29;20052;-71
2023/05/04 09:11:07;;;;;;;9.60;2.38;;;;;;;18.75;34.28;101864.34;4878860;29;20052;-71
2023/05/04 09:13:34;;;;;;;11.40;2.78;;;;;;;19.15;34.33;101856.78;4880241;29;20072;-71
2023/05/04 09:16:02;;;;;;;14.63;2.30;;;;;;;18.29;34.95;101866.38;4879060;29;20108;-72
2023/05/04 09:18:39;;;;;;;16.38;2.67;;;;;;;18.72;34.44;101861.16;4862165;29;20426;-71
2023/05/04 09:21:06;;;;;;;13.55;2.95;;;;;;;17.28;35.16;101859.19;4879145;29;20041;-71
2023/05/04 09:23:44;;;;;;;10.07;2.80;;;;;;;17.74;35.03;101853.88;4877735;29;20049;-71
2023/05/04 09:26:10;;;;;;;10.57;3.20;;;;;;;17.50;35.23;101857.59;4877119;29;20053;-71
2023/05/04 09:28:38;;;;;;;8.18;2.97;;;;;;;17.23;36.31;101857.00;4877919;29;20045;-72
2023/05/04 09:31:06;;;;;;;16.05;3.70;;;;;;;17.17;35.72;101851.47;4877395;29;20132;-71
2023/05/04 09:33:33;;;;;;;7.88;2.80;;;;;;;17.18;35.30;101858.56;4878432;29;20071;-71
2023/05/04 09:36:13;;;;;;;11.65;2.55;;;;;;;17.99;34.69;101847.22;4877971;29;20068;-72
2023/05/04 09:38:40;;;;;;;11.68;2.75;;;;;;;18.60;34.34;101843.66;4877897;29;20055;-71
2023/05/04 09:41:07;;;;;;;9.38;2.80;;;;;;;19.35;33.40;101835.28;4878904;29;20049;-71
2023/05/04 09:43:41;;;;;;;13.10;2.83;;;;;;;19.57;33.00;101844.31;4878179;29;20056;-71
2023/05/04 09:46:18;;;;;;;8.73;2.90;;;;;;;19.34;32.76;101843.63;4878928;29;20044;-72
2023/05/04 09:48:55;;;;;;;9.90;2.83;;;;;;;19.86;32.68;101832.47;4878815;29;20060;-72
2023/05/04 09:51:25;;;;;;;8.73;2.30;;;;;;;18.44;33.45;101831.91;4879870;29;20049;-71
2023/05/04 09:53:52;;;;;;;8.15;2.60;;;;;;;18.45;33.93;101830.06;4880734;29;20059;-72
2023/05/04 09:56:31;;;;;;;9.98;2.83;;;;;;;19.43;33.03;101829.72;4880253;29;20052;-72
2023/05/04 09:58:58;;;;;;;11.77;2.80;;;;;;;18.24;33.47;101831.63;4869832;29;20048;-73
2023/05/04 10:01:28;;;;;;;12.65;3.45;;;;;;;18.13;34.01;101823.84;4880885;29;20049;-73
2023/05/04 10:03:55;;;;;;;12.32;2.97;;;;;;;18.82;32.57;101820.13;4916776;29;20478;-72
2023/05/04 10:06:23;;;;;;;9.77;2.65;;;;;;;19.12;32.70;101810.94;4917789;29;20054;-72
2023/05/04 10:08:50;;;;;;;9.10;2.50;;;;;;;19.89;31.58;101802.13;4915465;29;20059;-72
2023/05/04 10:11:19;;;;;;;13.13;2.78;;;;;;;20.49;30.45;101794.47;4913030;29;20131;-71
2023/05/04 10:13:47;;;;;;;12.93;3.25;;;;;;;17.91;32.77;101794.88;4919814;29;20067;-71
2023/05/04 10:16:38;;;;;;;9.77;2.33;;;;;;;17.97;33.96;101799.56;4918413;29;20492;-71
2023/05/04 10:19:59;;;;;;;13.52;3.88;;;;;;;19.06;31.94;101795.38;4916949;29;20048;-73
2023/05/04 10:23:03;;;;;;;7.27;2.63;;;;;;;17.74;33.26;101794.16;4839240;29;20053;-71
2023/05/04 10:25:55;;;;;;;12.27;2.83;;;;;;;18.24;33.19;101798.19;4833841;29;20132;-72
2023/05/04 10:28:31;;;;;;;40.63;3.75;;;;;;;18.83;32.68;101789.22;4840189;29;20060;-71
2023/05/04 10:30:58;;;;;;;18.92;3.22;;;;;;;17.93;33.56;101784.69;4839290;29;20049;-70
2023/05/04 10:33:36;;;;;;;20.67;2.78;;;;;;;17.65;34.10;101784.38;4838862;29;20046;-72
2023/05/04 10:36:02;;;;;;;8.05;2.60;;;;;;;17.26;34.40;101779.88;4838919;29;20105;-71
2023/05/04 10:38:37;;;;;;;12.45;3.08;;;;;;;17.01;34.73;101777.28;4839062;29;20052;-71
2023/05/04 10:41:16;;;;;;;9.10;2.78;;;;;;;16.69;35.33;101763.91;4839066;29;20599;-71
2023/05/04 10:43:47;;;;;;;10.57;3.35;;;;;;;16.35;35.57;101770.41;4839063;29;20434;-70
2023/05/04 10:46:16;;;;;;;9.90;2.65;;;;;;;16.80;35.00;101763.50;4841350;29;20053;-72
2023/05/04 10:48:43;;;;;;;14.35;3.10;;;;;;;16.18;35.04;101767.72;4839663;29;20199;-70
2023/05/04 10:51:22;;;;;;;12.77;2.95;;;;;;;16.08;35.46;101758.94;4840196;29;20137;-71
2023/05/04 10:53:50;;;;;;;11.63;3.03;;;;;;;15.75;36.14;101750.00;4839965;29;20052;-70
2023/05/04 10:56:25;;;;;;;13.52;3.15;;;;;;;15.38;36.03;101747.75;4872073;29;20421;-70
2023/05/04 10:58:52;;;;;;;22.27;3.25;;;;;;;14.90;37.27;101752.88;4918269;29;20126;-71
2023/05/04 11:01:20;;;;;;;14.02;2.90;;;;;;;15.51;36.43;101741.88;4917911;29;20505;-71
2023/05/04 11:03:51;;;;;;;8.68;2.35;;;;;;;15.47;36.27;101728.66;4879616;29;20103;-70
2023/05/04 11:06:24;;;;;;;8.25;2.60;;;;;;;15.21;36.78;101733.38;4879361;29;20495;-71
2023/05/04 11:09:02;;;;;;;12.27;2.53;;;;;;;15.40;36.79;101737.63;4879892;29;20425;-71
2023/05/04 11:11:28;;;;;;;10.18;2.55;;;;;;;15.83;36.75;101732.94;4878841;29;20049;-71
2023/05/04 11:13:55;;;;;;;11.23;2.90;;;;;;;16.35;35.69;101729.78;4879100;29;20056;-72
2023/05/04 11:16:26;;;;;;;13.60;3.53;;;;;;;16.28;35.90;101734.19;4878244;29;20084;-72
2023/05/04 11:18:53;;;;;;;10.77;2.72;;;;;;;16.60;35.41;101725.16;4878979;29;20120;-72
2023/05/04 11:21:24;;;;;;;14.15;3.20;;;;;;;16.64;35.25;101726.47;4871654;29;20049;-71
2023/05/04 11:23:55;;;;;;;13.57;2.67;;;;;;;17.35;39.21;101716.47;4875582;29;20140;-72
2023/05/04 11:26:23;;;;;;;7.53;2.50;;;;;;;17.49;35.37;101714.81;4876157;29;20469;-70
2023/05/04 11:28:50;;;;;;;15.70;3.45;;;;;;;17.36;37.42;101721.69;4875730;29;20144;-72